sensor_id;sensor_type;location;lat;lon;timestamp;temperature;humidity
27707;DHT22;36332;51.384;0.040;2023-03-11T00:01:09;1.10;99.90
27707;DHT22;36332;51.384;0.040;2023-03-11T00:03:37;1.10;99.90
27707;DHT22;36332;51.384;0.040;2023-03-11T00:06:05;1.10;99.90
27707;DHT22;36332;51.384;0.040;2023-03-11T00:08:33;1.00;99.90
27707;DHT22;36332;51.384;0.040;2023-03-11T00:11:01;1.10;99.90
27707;DHT22;36332;51.384;0.040;2023-03-11T00:13:29;1.00;99.90
27707;DHT22;36332;51.384;0.040;2023-03-11T00:15:57;0.90;99.90
27707;DHT22;36332;51.384;0.040;2023-03-11T00:18:27;0.90;99.90
27707;DHT22;36332;51.384;0.040;2023-03-11T00:20:58;0.80;99.90
27707;DHT22;36332;51.384;0.040;2023-03-11T00:23:26;0.70;99.90
27707;DHT22;36332;51.384;0.040;2023-03-11T00:25:55;0.70;99.90
27707;DHT22;36332;51.384;0.040;2023-03-11T00:28:23;0.70;99.90
27707;DHT22;36332;51.384;0.040;2023-03-11T00:30:52;0.70;99.90
27707;DHT22;36332;51.384;0.040;2023-03-11T00:33:20;0.60;99.90
27707;DHT22;36332;51.384;0.040;2023-03-11T00:35:48;0.60;99.90
27707;DHT22;36332;51.384;0.040;2023-03-11T00:38:17;0.60;99.90
27707;DHT22;36332;51.384;0.040;2023-03-11T00:40:46;0.70;99.90
27707;DHT22;36332;51.384;0.040;2023-03-11T00:43:15;0.70;99.90
27707;DHT22;36332;51.384;0.040;2023-03-11T00:45:42;0.70;99.90
27707;DHT22;36332;51.384;0.040;2023-03-11T00:48:11;0.60;99.90
27707;DHT22;36332;51.384;0.040;2023-03-11T00:50:40;0.60;99.90
27707;DHT22;36332;51.384;0.040;2023-03-11T00:53:09;0.60;99.90
27707;DHT22;36332;51.384;0.040;2023-03-11T00:55:37;0.60;99.90
27707;DHT22;36332;51.384;0.040;2023-03-11T00:58:09;0.60;99.90
27707;DHT22;36332;51.384;0.040;2023-03-11T01:00:48;0.60;99.90
27707;DHT22;36332;51.384;0.040;2023-03-11T01:03:16;0.50;99.90
27707;DHT22;36332;51.384;0.040;2023-03-11T01:05:44;0.50;99.90
27707;DHT22;36332;51.384;0.040;2023-03-11T01:08:12;0.50;99.90
27707;DHT22;36332;51.384;0.040;2023-03-11T01:10:39;0.50;99.90
27707;DHT22;36332;51.384;0.040;2023-03-11T01:13:07;0.50;99.90
27707;DHT22;36332;51.384;0.040;2023-03-11T01:15:35;0.40;99.90
27707;DHT22;36332;51.384;0.040;2023-03-11T01:18:04;0.50;99.90
27707;DHT22;36332;51.384;0.040;2023-03-11T01:20:34;0.40;99.90
27707;DHT22;36332;51.384;0.040;2023-03-11T01:23:03;0.30;99.90
27707;DHT22;36332;51.384;0.040;2023-03-11T01:25:31;0.30;99.90
27707;DHT22;36332;51.384;0.040;2023-03-11T01:27:58;0.30;99.90
27707;DHT22;36332;51.384;0.040;2023-03-11T01:30:27;0.30;99.90
27707;DHT22;36332;51.384;0.040;2023-03-11T01:32:56;0.20;99.90
27707;DHT22;36332;51.384;0.040;2023-03-11T01:35:27;0.20;99.90
27707;DHT22;36332;51.384;0.040;2023-03-11T01:37:55;0.20;99.90
27707;DHT22;36332;51.384;0.040;2023-03-11T01:40:35;0.20;99.90
27707;DHT22;36332;51.384;0.040;2023-03-11T01:49:23;0.10;99.90
27707;DHT22;36332;51.384;0.040;2023-03-11T01:51:53;0.10;99.90
27707;DHT22;36332;51.384;0.040;2023-03-11T01:54:32;0.10;99.90
27707;DHT22;36332;51.384;0.040;2023-03-11T01:57:07;0.00;99.90
27707;DHT22;36332;51.384;0.040;2023-03-11T01:59:39;0.10;99.90
27707;DHT22;36332;51.384;0.040;2023-03-11T02:02:17;0.10;99.90
27707;DHT22;36332;51.384;0.040;2023-03-11T02:04:45;0.00;99.90
27707;DHT22;36332;51.384;0.040;2023-03-11T02:07:15;0.00;99.90
27707;DHT22;36332;51.384;0.040;2023-03-11T02:09:45;0.00;99.90
27707;DHT22;36332;51.384;0.040;2023-03-11T02:12:13;-0.10;99.90
27707;DHT22;36332;51.384;0.040;2023-03-11T02:14:45;-0.10;99.90
27707;DHT22;36332;51.384;0.040;2023-03-11T02:17:15;-0.10;99.90
27707;DHT22;36332;51.384;0.040;2023-03-11T02:22:27;-0.10;99.90
27707;DHT22;36332;51.384;0.040;2023-03-11T02:25:46;-0.20;99.90
27707;DHT22;36332;51.384;0.040;2023-03-11T02:28:12;-0.20;99.90
27707;DHT22;36332;51.384;0.040;2023-03-11T02:30:41;-0.20;99.90
27707;DHT22;36332;51.384;0.040;2023-03-11T02:33:10;-0.20;99.90
27707;DHT22;36332;51.384;0.040;2023-03-11T02:35:40;-0.20;99.90
27707;DHT22;36332;51.384;0.040;2023-03-11T02:38:09;-0.30;99.90
27707;DHT22;36332;51.384;0.040;2023-03-11T02:40:48;-0.20;99.90
27707;DHT22;36332;51.384;0.040;2023-03-11T02:43:28;-0.20;99.90
27707;DHT22;36332;51.384;0.040;2023-03-11T02:46:00;-0.30;99.90
27707;DHT22;36332;51.384;0.040;2023-03-11T02:48:29;-0.30;99.90
27707;DHT22;36332;51.384;0.040;2023-03-11T02:50:58;-0.30;99.90
27707;DHT22;36332;51.384;0.040;2023-03-11T02:53:27;-0.30;99.90
27707;DHT22;36332;51.384;0.040;2023-03-11T02:55:57;-0.40;99.90
27707;DHT22;36332;51.384;0.040;2023-03-11T02:58:24;-0.40;99.90
27707;DHT22;36332;51.384;0.040;2023-03-11T03:00:51;-0.40;99.90
27707;DHT22;36332;51.384;0.040;2023-03-11T03:03:19;-0.40;99.90
27707;DHT22;36332;51.384;0.040;2023-03-11T03:05:47;-0.40;99.90
27707;DHT22;36332;51.384;0.040;2023-03-11T03:08:15;-0.30;99.90
27707;DHT22;36332;51.384;0.040;2023-03-11T03:10:43;-0.40;99.90
27707;DHT22;36332;51.384;0.040;2023-03-11T03:13:10;-0.40;99.90
27707;DHT22;36332;51.384;0.040;2023-03-11T03:15:38;-0.40;99.90
27707;DHT22;36332;51.384;0.040;2023-03-11T03:18:06;-0.40;99.90
27707;DHT22;36332;51.384;0.040;2023-03-11T03:20:33;-0.40;99.90
27707;DHT22;36332;51.384;0.040;2023-03-11T03:23:02;-0.50;99.90
27707;DHT22;36332;51.384;0.040;2023-03-11T03:25:31;-0.50;99.90
27707;DHT22;36332;51.384;0.040;2023-03-11T03:28:03;-0.50;99.90
27707;DHT22;36332;51.384;0.040;2023-03-11T03:30:34;-0.50;99.90
27707;DHT22;36332;51.384;0.040;2023-03-11T03:33:02;-0.50;99.90
27707;DHT22;36332;51.384;0.040;2023-03-11T03:35:30;-0.50;99.90
27707;DHT22;36332;51.384;0.040;2023-03-11T03:38:03;-0.50;99.90
27707;DHT22;36332;51.384;0.040;2023-03-11T03:40:32;-0.50;99.90
27707;DHT22;36332;51.384;0.040;2023-03-11T03:43:03;-0.50;99.90
27707;DHT22;36332;51.384;0.040;2023-03-11T03:45:32;-0.50;99.90
27707;DHT22;36332;51.384;0.040;2023-03-11T03:47:59;-0.50;99.90
27707;DHT22;36332;51.384;0.040;2023-03-11T03:50:31;-0.60;99.90
27707;DHT22;36332;51.384;0.040;2023-03-11T03:52:58;-0.50;99.90
27707;DHT22;36332;51.384;0.040;2023-03-11T03:55:26;-0.60;99.90
27707;DHT22;36332;51.384;0.040;2023-03-11T03:57:55;-0.60;99.90
27707;DHT22;36332;51.384;0.040;2023-03-11T04:00:26;0.40;99.90
27707;DHT22;36332;51.384;0.040;2023-03-11T04:02:59;-0.60;99.90
27707;DHT22;36332;51.384;0.040;2023-03-11T04:05:34;-0.60;99.90
27707;DHT22;36332;51.384;0.040;2023-03-11T04:08:03;-0.60;99.90
27707;DHT22;36332;51.384;0.040;2023-03-11T04:10:31;-0.60;99.90
27707;DHT22;36332;51.384;0.040;2023-03-11T04:12:58;-0.60;99.90
27707;DHT22;36332;51.384;0.040;2023-03-11T04:15:26;-0.60;99.90
27707;DHT22;36332;51.384;0.040;2023-03-11T04:17:54;-0.70;99.90
27707;DHT22;36332;51.384;0.040;2023-03-11T04:20:22;-0.70;99.90
27707;DHT22;36332;51.384;0.040;2023-03-11T04:22:52;-0.70;99.90
27707;DHT22;36332;51.384;0.040;2023-03-11T04:25:22;-0.70;99.90
27707;DHT22;36332;51.384;0.040;2023-03-11T04:27:50;-0.70;99.90
27707;DHT22;36332;51.384;0.040;2023-03-11T04:30:19;-0.80;99.90
27707;DHT22;36332;51.384;0.040;2023-03-11T04:32:49;-0.70;99.90
27707;DHT22;36332;51.384;0.040;2023-03-11T04:35:18;-0.70;99.90
27707;DHT22;36332;51.384;0.040;2023-03-11T04:37:45;-0.70;99.90
27707;DHT22;36332;51.384;0.040;2023-03-11T04:40:13;-1.80;99.90
27707;DHT22;36332;51.384;0.040;2023-03-11T04:42:41;-0.70;99.90
27707;DHT22;36332;51.384;0.040;2023-03-11T04:45:09;-0.60;99.90
27707;DHT22;36332;51.384;0.040;2023-03-11T04:47:38;-0.60;99.90
27707;DHT22;36332;51.384;0.040;2023-03-11T04:50:06;-0.60;99.90
27707;DHT22;36332;51.384;0.040;2023-03-11T04:52:34;-0.50;99.90
27707;DHT22;36332;51.384;0.040;2023-03-11T04:55:02;-0.40;99.90
27707;DHT22;36332;51.384;0.040;2023-03-11T04:57:31;-0.40;99.90
27707;DHT22;36332;51.384;0.040;2023-03-11T05:00:00;-0.30;99.90
27707;DHT22;36332;51.384;0.040;2023-03-11T05:02:29;-0.30;99.90
27707;DHT22;36332;51.384;0.040;2023-03-11T05:04:59;-0.20;99.90
27707;DHT22;36332;51.384;0.040;2023-03-11T05:07:27;-0.20;99.90
27707;DHT22;36332;51.384;0.040;2023-03-11T05:09:55;-0.20;99.90
27707;DHT22;36332;51.384;0.040;2023-03-11T05:12:23;-0.10;99.90
27707;DHT22;36332;51.384;0.040;2023-03-11T05:14:53;0.00;99.90
27707;DHT22;36332;51.384;0.040;2023-03-11T05:17:21;0.00;99.90
27707;DHT22;36332;51.384;0.040;2023-03-11T05:19:51;0.00;99.90
27707;DHT22;36332;51.384;0.040;2023-03-11T05:22:28;0.10;99.90
27707;DHT22;36332;51.384;0.040;2023-03-11T05:24:56;0.10;99.90
27707;DHT22;36332;51.384;0.040;2023-03-11T05:27:24;0.10;99.90
27707;DHT22;36332;51.384;0.040;2023-03-11T05:29:55;0.10;99.90
27707;DHT22;36332;51.384;0.040;2023-03-11T05:32:25;0.20;99.90
27707;DHT22;36332;51.384;0.040;2023-03-11T05:34:54;0.20;99.90
27707;DHT22;36332;51.384;0.040;2023-03-11T05:37:21;0.20;99.90
27707;DHT22;36332;51.384;0.040;2023-03-11T05:39:51;0.20;99.90
27707;DHT22;36332;51.384;0.040;2023-03-11T05:42:20;0.30;99.90
27707;DHT22;36332;51.384;0.040;2023-03-11T05:44:51;0.30;99.90
27707;DHT22;36332;51.384;0.040;2023-03-11T05:47:20;0.30;99.90
27707;DHT22;36332;51.384;0.040;2023-03-11T05:49:49;0.30;99.90
27707;DHT22;36332;51.384;0.040;2023-03-11T05:52:18;0.40;99.90
27707;DHT22;36332;51.384;0.040;2023-03-11T05:54:50;0.40;99.90
27707;DHT22;36332;51.384;0.040;2023-03-11T05:57:23;0.40;99.90
27707;DHT22;36332;51.384;0.040;2023-03-11T05:59:51;0.40;99.90
27707;DHT22;36332;51.384;0.040;2023-03-11T06:02:20;0.40;99.90
27707;DHT22;36332;51.384;0.040;2023-03-11T06:04:48;0.50;99.90
27707;DHT22;36332;51.384;0.040;2023-03-11T06:07:17;0.40;99.90
27707;DHT22;36332;51.384;0.040;2023-03-11T06:09:49;0.40;99.90
27707;DHT22;36332;51.384;0.040;2023-03-11T06:12:18;0.40;99.90
27707;DHT22;36332;51.384;0.040;2023-03-11T06:15:08;0.40;99.90
27707;DHT22;36332;51.384;0.040;2023-03-11T06:17:37;0.40;99.90
27707;DHT22;36332;51.384;0.040;2023-03-11T06:20:06;0.40;99.90
27707;DHT22;36332;51.384;0.040;2023-03-11T06:22:34;0.40;99.90
27707;DHT22;36332;51.384;0.040;2023-03-11T06:25:04;0.40;99.90
27707;DHT22;36332;51.384;0.040;2023-03-11T06:27:33;1.70;99.90
27707;DHT22;36332;51.384;0.040;2023-03-11T06:30:01;0.50;99.90
27707;DHT22;36332;51.384;0.040;2023-03-11T06:32:32;0.50;99.90
27707;DHT22;36332;51.384;0.040;2023-03-11T06:35:03;0.50;99.90
27707;DHT22;36332;51.384;0.040;2023-03-11T06:37:31;0.50;99.90
27707;DHT22;36332;51.384;0.040;2023-03-11T06:40:02;0.50;99.90
27707;DHT22;36332;51.384;0.040;2023-03-11T06:42:32;0.60;99.90
27707;DHT22;36332;51.384;0.040;2023-03-11T06:45:00;0.60;99.90
27707;DHT22;36332;51.384;0.040;2023-03-11T06:47:28;0.60;99.90
27707;DHT22;36332;51.384;0.040;2023-03-11T06:49:55;0.70;99.90
27707;DHT22;36332;51.384;0.040;2023-03-11T06:52:24;0.70;99.90
27707;DHT22;36332;51.384;0.040;2023-03-11T06:54:52;0.70;99.90
27707;DHT22;36332;51.384;0.040;2023-03-11T06:57:20;0.70;99.90
27707;DHT22;36332;51.384;0.040;2023-03-11T06:59:49;0.70;99.90
27707;DHT22;36332;51.384;0.040;2023-03-11T07:02:17;0.80;99.90
27707;DHT22;36332;51.384;0.040;2023-03-11T07:04:48;0.80;99.90
27707;DHT22;36332;51.384;0.040;2023-03-11T07:07:17;0.80;99.90
27707;DHT22;36332;51.384;0.040;2023-03-11T07:09:44;0.90;99.90
27707;DHT22;36332;51.384;0.040;2023-03-11T07:12:13;0.90;99.90
27707;DHT22;36332;51.384;0.040;2023-03-11T07:14:42;1.00;99.90
27707;DHT22;36332;51.384;0.040;2023-03-11T07:17:10;1.00;99.90
27707;DHT22;36332;51.384;0.040;2023-03-11T07:19:44;1.00;99.90
27707;DHT22;36332;51.384;0.040;2023-03-11T07:22:12;1.10;99.90
27707;DHT22;36332;51.384;0.040;2023-03-11T07:24:40;1.20;99.90
27707;DHT22;36332;51.384;0.040;2023-03-11T07:27:10;1.20;99.90
27707;DHT22;36332;51.384;0.040;2023-03-11T07:29:38;1.20;99.90
27707;DHT22;36332;51.384;0.040;2023-03-11T07:32:06;1.30;99.90
27707;DHT22;36332;51.384;0.040;2023-03-11T07:34:34;1.30;99.90
27707;DHT22;36332;51.384;0.040;2023-03-11T07:37:03;1.40;99.90
27707;DHT22;36332;51.384;0.040;2023-03-11T07:39:30;1.50;99.90
27707;DHT22;36332;51.384;0.040;2023-03-11T07:41:58;1.50;99.90
27707;DHT22;36332;51.384;0.040;2023-03-11T07:44:34;1.60;99.90
27707;DHT22;36332;51.384;0.040;2023-03-11T07:47:05;1.70;99.90
27707;DHT22;36332;51.384;0.040;2023-03-11T07:49:35;1.80;99.90
27707;DHT22;36332;51.384;0.040;2023-03-11T07:52:03;1.80;99.90
27707;DHT22;36332;51.384;0.040;2023-03-11T07:54:30;1.90;99.90
27707;DHT22;36332;51.384;0.040;2023-03-11T07:56:58;1.90;99.90
27707;DHT22;36332;51.384;0.040;2023-03-11T07:59:25;2.10;99.90
27707;DHT22;36332;51.384;0.040;2023-03-11T08:01:53;2.10;99.90
27707;DHT22;36332;51.384;0.040;2023-03-11T08:04:20;2.20;99.90
27707;DHT22;36332;51.384;0.040;2023-03-11T08:06:48;2.30;99.90
27707;DHT22;36332;51.384;0.040;2023-03-11T08:09:15;2.40;99.90
27707;DHT22;36332;51.384;0.040;2023-03-11T08:11:43;2.50;99.90
27707;DHT22;36332;51.384;0.040;2023-03-11T08:14:11;2.70;99.90
27707;DHT22;36332;51.384;0.040;2023-03-11T08:16:39;2.70;99.90
27707;DHT22;36332;51.384;0.040;2023-03-11T08:19:10;2.80;99.90
27707;DHT22;36332;51.384;0.040;2023-03-11T08:21:38;2.80;99.90
27707;DHT22;36332;51.384;0.040;2023-03-11T08:24:06;2.90;99.90
27707;DHT22;36332;51.384;0.040;2023-03-11T08:26:33;3.00;99.90
27707;DHT22;36332;51.384;0.040;2023-03-11T08:29:01;3.10;99.90
27707;DHT22;36332;51.384;0.040;2023-03-11T08:31:31;3.40;99.90
27707;DHT22;36332;51.384;0.040;2023-03-11T08:34:05;3.60;99.90
27707;DHT22;36332;51.384;0.040;2023-03-11T08:36:33;3.60;99.90
27707;DHT22;36332;51.384;0.040;2023-03-11T08:39:01;3.70;99.90
27707;DHT22;36332;51.384;0.040;2023-03-11T08:41:28;3.90;99.90
27707;DHT22;36332;51.384;0.040;2023-03-11T08:43:56;4.10;99.90
27707;DHT22;36332;51.384;0.040;2023-03-11T08:46:29;4.10;99.90
27707;DHT22;36332;51.384;0.040;2023-03-11T08:48:58;4.30;99.90
27707;DHT22;36332;51.384;0.040;2023-03-11T08:51:29;4.40;99.90
27707;DHT22;36332;51.384;0.040;2023-03-11T08:53:57;4.60;99.90
27707;DHT22;36332;51.384;0.040;2023-03-11T08:56:25;4.70;99.90
27707;DHT22;36332;51.384;0.040;2023-03-11T08:58:53;4.90;99.90
27707;DHT22;36332;51.384;0.040;2023-03-11T09:01:21;5.40;99.90
27707;DHT22;36332;51.384;0.040;2023-03-11T09:03:50;5.20;99.90
27707;DHT22;36332;51.384;0.040;2023-03-11T09:06:18;5.30;99.90
27707;DHT22;36332;51.384;0.040;2023-03-11T09:08:47;5.50;99.90
27707;DHT22;36332;51.384;0.040;2023-03-11T09:11:16;5.70;99.90
27707;DHT22;36332;51.384;0.040;2023-03-11T09:13:44;5.80;99.90
27707;DHT22;36332;51.384;0.040;2023-03-11T09:16:14;6.00;99.90
27707;DHT22;36332;51.384;0.040;2023-03-11T09:18:42;6.10;99.90
27707;DHT22;36332;51.384;0.040;2023-03-11T09:21:10;6.20;99.90
27707;DHT22;36332;51.384;0.040;2023-03-11T09:23:38;6.40;99.90
27707;DHT22;36332;51.384;0.040;2023-03-11T09:26:09;6.50;99.90
27707;DHT22;36332;51.384;0.040;2023-03-11T09:28:38;6.70;99.90
27707;DHT22;36332;51.384;0.040;2023-03-11T09:31:06;6.80;99.90
27707;DHT22;36332;51.384;0.040;2023-03-11T09:33:38;6.90;99.90
27707;DHT22;36332;51.384;0.040;2023-03-11T09:36:07;7.00;99.90
27707;DHT22;36332;51.384;0.040;2023-03-11T09:38:34;7.00;99.90
27707;DHT22;36332;51.384;0.040;2023-03-11T09:41:07;7.00;99.90
27707;DHT22;36332;51.384;0.040;2023-03-11T09:48:51;7.10;99.90
27707;DHT22;36332;51.384;0.040;2023-03-11T09:51:31;7.10;99.90
27707;DHT22;36332;51.384;0.040;2023-03-11T09:54:04;7.10;99.90
27707;DHT22;36332;51.384;0.040;2023-03-11T09:56:33;7.10;99.90
27707;DHT22;36332;51.384;0.040;2023-03-11T09:59:26;7.20;99.90
27707;DHT22;36332;51.384;0.040;2023-03-11T10:01:56;7.20;99.90
27707;DHT22;36332;51.384;0.040;2023-03-11T10:04:33;7.30;99.90
27707;DHT22;36332;51.384;0.040;2023-03-11T10:07:11;7.50;99.90
27707;DHT22;36332;51.384;0.040;2023-03-11T10:09:47;7.60;99.90
27707;DHT22;36332;51.384;0.040;2023-03-11T10:17:48;7.80;99.90
27707;DHT22;36332;51.384;0.040;2023-03-11T10:20:44;7.80;99.90
27707;DHT22;36332;51.384;0.040;2023-03-11T10:24:12;7.90;99.90
27707;DHT22;36332;51.384;0.040;2023-03-11T10:28:43;8.20;99.90
27707;DHT22;36332;51.384;0.040;2023-03-11T10:33:51;8.50;99.90
27707;DHT22;36332;51.384;0.040;2023-03-11T10:36:23;8.60;99.90
27707;DHT22;36332;51.384;0.040;2023-03-11T10:38:54;8.60;99.90
27707;DHT22;36332;51.384;0.040;2023-03-11T10:44:06;8.60;99.90
27707;DHT22;36332;51.384;0.040;2023-03-11T10:46:37;8.70;99.90
27707;DHT22;36332;51.384;0.040;2023-03-11T10:49:16;8.70;99.90
27707;DHT22;36332;51.384;0.040;2023-03-11T10:51:50;8.80;99.90
27707;DHT22;36332;51.384;0.040;2023-03-11T10:54:26;8.80;99.90
27707;DHT22;36332;51.384;0.040;2023-03-11T10:57:00;8.90;99.90
27707;DHT22;36332;51.384;0.040;2023-03-11T10:59:29;8.90;99.90
27707;DHT22;36332;51.384;0.040;2023-03-11T11:02:00;8.90;99.90
27707;DHT22;36332;51.384;0.040;2023-03-11T11:04:36;9.00;99.90
27707;DHT22;36332;51.384;0.040;2023-03-11T11:07:28;9.10;99.90
27707;DHT22;36332;51.384;0.040;2023-03-11T11:13:14;9.40;99.90
27707;DHT22;36332;51.384;0.040;2023-03-11T11:16:15;9.50;99.90
27707;DHT22;36332;51.384;0.040;2023-03-11T11:18:44;9.60;99.90
27707;DHT22;36332;51.384;0.040;2023-03-11T11:21:37;9.70;99.90
27707;DHT22;36332;51.384;0.040;2023-03-11T11:24:27;9.80;99.90
27707;DHT22;36332;51.384;0.040;2023-03-11T11:27:14;9.80;99.90
27707;DHT22;36332;51.384;0.040;2023-03-11T11:29:42;9.80;99.90
27707;DHT22;36332;51.384;0.040;2023-03-11T11:32:23;9.70;99.90
27707;DHT22;36332;51.384;0.040;2023-03-11T11:35:00;9.70;99.90
27707;DHT22;36332;51.384;0.040;2023-03-11T11:37:30;9.70;99.90
27707;DHT22;36332;51.384;0.040;2023-03-11T11:40:06;9.70;99.90
27707;DHT22;36332;51.384;0.040;2023-03-11T11:42:45;9.70;99.90
27707;DHT22;36332;51.384;0.040;2023-03-11T11:45:26;9.70;99.90
27707;DHT22;36332;51.384;0.040;2023-03-11T11:47:59;9.70;99.90
27707;DHT22;36332;51.384;0.040;2023-03-11T11:50:52;9.80;99.90
27707;DHT22;36332;51.384;0.040;2023-03-11T11:53:34;9.90;99.90
27707;DHT22;36332;51.384;0.040;2023-03-11T11:56:05;10.20;99.90
27707;DHT22;36332;51.384;0.040;2023-03-11T11:58:33;10.40;99.90
27707;DHT22;36332;51.384;0.040;2023-03-11T12:01:13;10.80;99.90
27707;DHT22;36332;51.384;0.040;2023-03-11T12:04:09;10.90;99.90
27707;DHT22;36332;51.384;0.040;2023-03-11T12:09:27;11.20;99.90
27707;DHT22;36332;51.384;0.040;2023-03-11T12:12:17;11.50;99.90
27707;DHT22;36332;51.384;0.040;2023-03-11T12:17:35;12.00;99.90
27707;DHT22;36332;51.384;0.040;2023-03-11T12:20:34;12.10;99.90
27707;DHT22;36332;51.384;0.040;2023-03-11T12:31:24;12.60;99.90
27707;DHT22;36332;51.384;0.040;2023-03-11T12:33:55;12.50;99.90
27707;DHT22;36332;51.384;0.040;2023-03-11T12:36:30;12.50;99.90
27707;DHT22;36332;51.384;0.040;2023-03-11T12:39:00;12.40;99.90
27707;DHT22;36332;51.384;0.040;2023-03-11T12:44:00;12.40;99.90
27707;DHT22;36332;51.384;0.040;2023-03-11T12:49:31;13.10;99.90
27707;DHT22;36332;51.384;0.040;2023-03-11T12:54:36;13.90;99.90
27707;DHT22;36332;51.384;0.040;2023-03-11T13:00:02;14.60;99.90
27707;DHT22;36332;51.384;0.040;2023-03-11T13:03:21;14.80;99.90
27707;DHT22;36332;51.384;0.040;2023-03-11T13:06:15;14.90;99.90
27707;DHT22;36332;51.384;0.040;2023-03-11T13:08:48;15.10;99.90
27707;DHT22;36332;51.384;0.040;2023-03-11T13:14:22;15.00;99.90
27707;DHT22;36332;51.384;0.040;2023-03-11T13:16:53;15.10;99.90
27707;DHT22;36332;51.384;0.040;2023-03-11T13:22:00;15.30;99.10
27707;DHT22;36332;51.384;0.040;2023-03-11T13:27:04;15.00;95.80
27707;DHT22;36332;51.384;0.040;2023-03-11T13:32:28;14.40;96.90
27707;DHT22;36332;51.384;0.040;2023-03-11T13:40:15;13.70;97.50
27707;DHT22;36332;51.384;0.040;2023-03-11T13:42:53;13.40;98.10
27707;DHT22;36332;51.384;0.040;2023-03-11T13:45:28;13.00;98.10
27707;DHT22;36332;51.384;0.040;2023-03-11T13:51:01;12.20;97.20
27707;DHT22;36332;51.384;0.040;2023-03-11T13:53:36;11.80;98.80
27707;DHT22;36332;51.384;0.040;2023-03-11T13:56:07;11.50;99.10
27707;DHT22;36332;51.384;0.040;2023-03-11T13:58:43;11.30;98.40
27707;DHT22;36332;51.384;0.040;2023-03-11T14:01:16;11.00;99.00
27707;DHT22;36332;51.384;0.040;2023-03-11T14:03:45;10.90;99.00
27707;DHT22;36332;51.384;0.040;2023-03-11T14:06:19;10.80;98.40
27707;DHT22;36332;51.384;0.040;2023-03-11T14:08:55;10.70;98.90
27707;DHT22;36332;51.384;0.040;2023-03-11T14:11:27;10.80;99.80
27707;DHT22;36332;51.384;0.040;2023-03-11T14:13:58;10.90;99.60
27707;DHT22;36332;51.384;0.040;2023-03-11T14:16:31;11.10;99.90
27707;DHT22;36332;51.384;0.040;2023-03-11T14:19:04;11.40;99.90
27707;DHT22;36332;51.384;0.040;2023-03-11T14:21:35;11.80;98.80
27707;DHT22;36332;51.384;0.040;2023-03-11T14:24:03;12.10;98.40
27707;DHT22;36332;51.384;0.040;2023-03-11T14:26:33;13.40;96.90
27707;DHT22;36332;51.384;0.040;2023-03-11T14:29:07;12.50;97.40
27707;DHT22;36332;51.384;0.040;2023-03-11T14:31:37;12.60;98.00
27707;DHT22;36332;51.384;0.040;2023-03-11T14:34:26;12.70;98.40
27707;DHT22;36332;51.384;0.040;2023-03-11T14:36:57;13.00;97.50
27707;DHT22;36332;51.384;0.040;2023-03-11T14:39:36;13.10;97.60
27707;DHT22;36332;51.384;0.040;2023-03-11T14:44:49;12.80;97.30
27707;DHT22;36332;51.384;0.040;2023-03-11T14:49:52;12.50;97.30
27707;DHT22;36332;51.384;0.040;2023-03-11T14:58:09;13.40;96.10
27707;DHT22;36332;51.384;0.040;2023-03-11T15:00:48;13.20;95.60
27707;DHT22;36332;51.384;0.040;2023-03-11T15:03:23;13.00;95.50
27707;DHT22;36332;51.384;0.040;2023-03-11T15:05:55;12.80;95.90
27707;DHT22;36332;51.384;0.040;2023-03-11T15:08:26;12.90;96.60
27707;DHT22;36332;51.384;0.040;2023-03-11T15:11:04;13.20;96.40
27707;DHT22;36332;51.384;0.040;2023-03-11T15:13:32;13.70;95.50
27707;DHT22;36332;51.384;0.040;2023-03-11T15:16:03;14.40;95.90
27707;DHT22;36332;51.384;0.040;2023-03-11T15:18:34;14.80;94.80
27707;DHT22;36332;51.384;0.040;2023-03-11T15:23:34;14.40;94.00
27707;DHT22;36332;51.384;0.040;2023-03-11T15:26:03;13.20;93.80
27707;DHT22;36332;51.384;0.040;2023-03-11T15:28:32;13.20;94.20
27707;DHT22;36332;51.384;0.040;2023-03-11T15:31:30;12.60;94.50
27707;DHT22;36332;51.384;0.040;2023-03-11T15:36:55;11.80;96.20
27707;DHT22;36332;51.384;0.040;2023-03-11T15:42:39;11.20;96.50
27707;DHT22;36332;51.384;0.040;2023-03-11T15:47:18;10.70;96.90
27707;DHT22;36332;51.384;0.040;2023-03-11T15:49:47;10.60;97.80
27707;DHT22;36332;51.384;0.040;2023-03-11T15:52:17;10.50;98.10
27707;DHT22;36332;51.384;0.040;2023-03-11T15:54:47;10.40;98.00
27707;DHT22;36332;51.384;0.040;2023-03-11T15:57:26;10.40;98.20
27707;DHT22;36332;51.384;0.040;2023-03-11T15:59:57;10.10;98.30
27707;DHT22;36332;51.384;0.040;2023-03-11T16:02:28;10.10;98.70
27707;DHT22;36332;51.384;0.040;2023-03-11T16:04:57;9.90;98.90
27707;DHT22;36332;51.384;0.040;2023-03-11T16:07:24;9.80;99.50
27707;DHT22;36332;51.384;0.040;2023-03-11T16:10:07;9.70;99.60
27707;DHT22;36332;51.384;0.040;2023-03-11T16:12:35;9.60;99.80
27707;DHT22;36332;51.384;0.040;2023-03-11T16:15:04;9.50;99.90
27707;DHT22;36332;51.384;0.040;2023-03-11T16:17:32;9.30;99.90
27707;DHT22;36332;51.384;0.040;2023-03-11T16:20:17;9.20;99.90
27707;DHT22;36332;51.384;0.040;2023-03-11T16:22:46;9.10;99.90
27707;DHT22;36332;51.384;0.040;2023-03-11T16:25:34;9.00;99.90
27707;DHT22;36332;51.384;0.040;2023-03-11T16:28:02;8.90;99.90
27707;DHT22;36332;51.384;0.040;2023-03-11T16:30:32;8.90;99.90
27707;DHT22;36332;51.384;0.040;2023-03-11T16:33:00;8.80;99.90
27707;DHT22;36332;51.384;0.040;2023-03-11T16:35:31;8.90;99.90
27707;DHT22;36332;51.384;0.040;2023-03-11T16:37:59;8.80;99.90
27707;DHT22;36332;51.384;0.040;2023-03-11T16:40:27;8.60;99.90
27707;DHT22;36332;51.384;0.040;2023-03-11T16:43:06;8.60;99.90
27707;DHT22;36332;51.384;0.040;2023-03-11T16:45:34;8.50;99.90
27707;DHT22;36332;51.384;0.040;2023-03-11T16:48:03;8.50;99.90
27707;DHT22;36332;51.384;0.040;2023-03-11T16:50:32;8.40;99.90
27707;DHT22;36332;51.384;0.040;2023-03-11T16:53:01;8.40;99.90
27707;DHT22;36332;51.384;0.040;2023-03-11T16:55:29;8.50;99.90
27707;DHT22;36332;51.384;0.040;2023-03-11T16:57:57;8.30;99.90
27707;DHT22;36332;51.384;0.040;2023-03-11T17:00:25;8.30;99.90
27707;DHT22;36332;51.384;0.040;2023-03-11T17:02:53;8.50;99.90
27707;DHT22;36332;51.384;0.040;2023-03-11T17:05:21;8.10;99.90
27707;DHT22;36332;51.384;0.040;2023-03-11T17:07:52;8.00;99.90
27707;DHT22;36332;51.384;0.040;2023-03-11T17:10:20;8.00;99.90
27707;DHT22;36332;51.384;0.040;2023-03-11T17:12:50;8.00;99.90
27707;DHT22;36332;51.384;0.040;2023-03-11T17:15:18;7.80;99.90
27707;DHT22;36332;51.384;0.040;2023-03-11T17:17:46;7.80;99.90
27707;DHT22;36332;51.384;0.040;2023-03-11T17:20:13;7.70;99.90
27707;DHT22;36332;51.384;0.040;2023-03-11T17:22:41;7.70;99.90
27707;DHT22;36332;51.384;0.040;2023-03-11T17:25:08;7.60;99.90
27707;DHT22;36332;51.384;0.040;2023-03-11T17:27:36;7.60;99.90
27707;DHT22;36332;51.384;0.040;2023-03-11T17:30:05;7.50;99.90
27707;DHT22;36332;51.384;0.040;2023-03-11T17:32:33;7.50;99.90
27707;DHT22;36332;51.384;0.040;2023-03-11T17:35:00;7.50;99.90
27707;DHT22;36332;51.384;0.040;2023-03-11T17:37:28;7.40;99.90
27707;DHT22;36332;51.384;0.040;2023-03-11T17:39:55;7.30;99.90
27707;DHT22;36332;51.384;0.040;2023-03-11T17:42:23;7.10;99.90